createdAt,value
2019-02-18T00:01:39.386Z,99857.00
2019-02-18T00:03:44.687Z,99861.00
2019-02-18T00:05:50.282Z,99861.00
2019-02-18T00:07:55.517Z,99860.00
2019-02-18T00:10:00.370Z,99855.00
2019-02-18T00:12:05.284Z,99854.00
2019-02-18T00:14:10.412Z,99864.00
2019-02-18T00:16:15.735Z,99850.00
2019-02-18T00:18:21.083Z,99854.00
2019-02-18T00:20:26.236Z,99843.00
2019-02-18T00:22:31.519Z,99852.00
2019-02-18T00:24:36.412Z,99854.00
2019-02-18T00:26:41.988Z,99853.00
2019-02-18T00:28:46.858Z,99853.00
2019-02-18T00:30:52.327Z,99853.00
2019-02-18T00:32:57.458Z,99856.00
2019-02-18T00:35:02.616Z,99852.00
2019-02-18T00:37:07.563Z,99852.00
2019-02-18T00:39:13.161Z,99864.00
2019-02-18T00:41:18.185Z,99856.00
2019-02-18T00:43:23.319Z,99854.00
2019-02-18T00:45:29.342Z,99856.00
2019-02-18T00:47:34.788Z,99856.00
2019-02-18T00:49:40.034Z,99851.00
2019-02-18T00:51:45.180Z,99857.00
2019-02-18T00:53:50.400Z,99864.00
2019-02-18T00:55:55.585Z,99854.00
2019-02-18T00:58:00.732Z,99853.00
2019-02-18T01:00:07.485Z,99861.00
2019-02-18T01:02:13.484Z,99857.00
2019-02-18T01:04:18.659Z,99856.00
2019-02-18T01:06:23.760Z,99863.00
2019-02-18T01:08:28.981Z,99862.00
2019-02-18T01:10:34.122Z,99860.00
2019-02-18T01:12:39.665Z,99863.00
2019-02-18T01:14:44.895Z,99866.00
2019-02-18T01:16:49.732Z,99863.00
2019-02-18T01:18:54.627Z,99861.00
2019-02-18T01:20:59.544Z,99866.00
2019-02-18T01:23:05.126Z,99865.00
2019-02-18T01:25:12.074Z,99869.00
2019-02-18T01:27:17.310Z,99868.00
2019-02-18T01:29:22.520Z,99858.00
2019-02-18T01:31:27.787Z,99855.00
2019-02-18T01:33:33.446Z,99853.00
2019-02-18T01:35:39.022Z,99866.00
2019-02-18T01:37:45.983Z,99862.00
2019-02-18T01:39:50.851Z,99848.00
2019-02-18T01:41:56.114Z,99849.00
2019-02-18T01:44:01.599Z,99848.00
2019-02-18T01:46:06.828Z,99849.00
2019-02-18T01:48:11.769Z,99842.00
2019-02-18T01:50:16.984Z,99839.00
2019-02-18T01:52:21.820Z,99838.00
2019-02-18T01:54:26.665Z,99850.00
2019-02-18T01:56:31.618Z,99837.00
2019-02-18T01:58:36.819Z,99835.00
2019-02-18T02:00:43.335Z,99827.00
2019-02-18T02:02:51.897Z,99828.00
2019-02-18T02:05:00.423Z,99832.00
2019-02-18T02:07:07.319Z,99826.00
2019-02-18T02:09:15.934Z,99826.00
2019-02-18T02:11:21.664Z,99825.00
2019-02-18T02:13:34.931Z,99828.00
2019-02-18T02:15:40.152Z,99826.00
2019-02-18T02:17:45.412Z,99817.00
2019-02-18T02:19:50.552Z,99827.00
2019-02-18T02:21:56.318Z,99822.00
2019-02-18T02:24:01.233Z,99821.00
2019-02-18T02:26:06.899Z,99831.00
2019-02-18T02:28:11.748Z,99821.00
2019-02-18T02:30:17.119Z,99826.00
2019-02-18T02:32:21.962Z,99818.00
2019-02-18T02:34:27.160Z,99822.00
2019-02-18T02:36:32.922Z,99824.00
2019-02-18T02:38:38.263Z,99812.00
2019-02-18T02:40:43.163Z,99825.00
2019-02-18T02:42:48.365Z,99823.00
2019-02-18T02:44:53.828Z,99811.00
2019-02-18T02:46:58.958Z,99813.00
2019-02-18T02:49:03.874Z,99819.00
2019-02-18T02:51:09.294Z,99801.00
2019-02-18T02:53:14.387Z,99804.00
2019-02-18T02:55:19.623Z,99812.00
2019-02-18T02:57:24.822Z,99806.00
2019-02-18T02:59:29.705Z,99809.00
2019-02-18T03:01:39.039Z,99810.00
2019-02-18T03:03:43.934Z,99808.00
2019-02-18T03:05:49.110Z,99801.00
2019-02-18T03:07:54.413Z,99804.00
2019-02-18T03:10:00.379Z,99805.00
2019-02-18T03:12:05.289Z,99801.00
2019-02-18T03:14:10.186Z,99804.00
2019-02-18T03:16:16.561Z,99807.00
2019-02-18T03:18:22.021Z,99806.00
2019-02-18T03:20:27.278Z,99813.00
2019-02-18T03:22:32.799Z,99807.00
2019-02-18T03:24:38.317Z,99813.00
2019-02-18T03:26:43.548Z,99799.00
2019-02-18T03:29:33.354Z,99819.00
2019-02-18T03:31:38.195Z,99811.00
2019-02-18T03:33:58.143Z,99818.00
2019-02-18T03:36:03.428Z,99809.00
2019-02-18T03:38:08.679Z,99808.00
2019-02-18T03:40:13.686Z,99806.00
2019-02-18T03:42:18.835Z,99803.00
2019-02-18T03:44:23.683Z,99797.00
2019-02-18T03:46:28.557Z,99801.00
2019-02-18T03:48:33.942Z,99802.00
2019-02-18T03:50:38.861Z,99804.00
2019-02-18T03:52:44.701Z,99804.00
2019-02-18T03:54:49.635Z,99798.00
2019-02-18T03:56:55.265Z,99804.00
2019-02-18T03:59:00.605Z,99795.00
2019-02-18T04:01:07.096Z,99803.00
2019-02-18T04:03:12.352Z,99803.00
2019-02-18T04:05:18.549Z,99803.00
2019-02-18T04:07:23.763Z,99801.00
2019-02-18T04:09:28.944Z,99795.00
2019-02-18T04:13:40.835Z,99790.00
2019-02-18T04:15:46.127Z,99802.00
2019-02-18T04:17:51.942Z,99799.00
2019-02-18T04:19:57.460Z,99804.00
2019-02-18T04:22:03.063Z,99804.00
2019-02-18T04:24:08.287Z,99792.00
2019-02-18T04:26:13.851Z,99790.00
2019-02-18T04:28:19.110Z,99801.00
2019-02-18T04:30:24.623Z,99793.00
2019-02-18T04:32:29.887Z,99790.00
2019-02-18T04:34:34.786Z,99803.00
2019-02-18T04:36:40.042Z,99804.00
2019-02-18T04:38:53.860Z,99800.00
2019-02-18T04:40:52.590Z,99804.00
2019-02-18T04:42:57.449Z,99794.00
2019-02-18T04:45:02.712Z,99796.00
2019-02-18T04:47:08.653Z,99794.00
2019-02-18T04:49:13.808Z,99790.00
2019-02-18T04:51:19.087Z,99788.00
2019-02-18T04:53:24.562Z,99793.00
2019-02-18T04:55:30.291Z,99783.00
2019-02-18T04:57:35.961Z,99782.00
2019-02-18T04:59:40.803Z,99794.00
2019-02-18T05:01:46.370Z,99777.00
2019-02-18T05:03:51.509Z,99780.00
2019-02-18T05:05:57.901Z,99775.00
2019-02-18T05:08:03.051Z,99784.00
2019-02-18T05:10:09.196Z,99779.00
2019-02-18T05:12:14.640Z,99770.00
2019-02-18T05:14:20.311Z,99784.00
2019-02-18T05:16:25.508Z,99774.00
2019-02-18T05:18:30.656Z,99785.00
2019-02-18T05:20:35.833Z,99783.00
2019-02-18T05:22:41.072Z,99775.00
2019-02-18T05:24:46.242Z,99781.00
2019-02-18T05:26:51.674Z,99784.00
2019-02-18T05:28:57.246Z,99780.00
2019-02-18T05:31:02.474Z,99787.00
2019-02-18T05:33:07.349Z,99777.00
2019-02-18T05:35:12.324Z,99778.00
2019-02-18T05:37:17.553Z,99776.00
2019-02-18T05:39:22.723Z,99775.00
2019-02-18T05:41:27.836Z,99763.00
2019-02-18T05:43:33.125Z,99777.00
2019-02-18T05:45:38.563Z,99769.00
2019-02-18T05:47:44.196Z,99777.00
2019-02-18T05:49:49.386Z,99776.00
2019-02-18T05:51:54.856Z,99776.00
2019-02-18T05:53:59.860Z,99775.00
2019-02-18T05:56:05.135Z,99778.00
2019-02-18T05:58:10.272Z,99770.00
2019-02-18T06:00:16.096Z,99767.00
2019-02-18T06:02:22.390Z,99768.00
2019-02-18T06:04:27.538Z,99766.00
2019-02-18T06:06:32.657Z,99763.00
2019-02-18T06:08:37.867Z,99761.00
2019-02-18T06:10:43.100Z,99765.00
2019-02-18T06:12:48.817Z,99768.00
2019-02-18T06:14:54.234Z,99768.00
2019-02-18T06:16:59.317Z,99764.00
2019-02-18T06:19:04.614Z,99765.00
2019-02-18T06:21:09.850Z,99759.00
2019-02-18T06:23:15.003Z,99763.00
2019-02-18T06:25:20.683Z,99759.00
2019-02-18T06:27:25.525Z,99765.00
2019-02-18T06:29:31.066Z,99770.00
2019-02-18T06:31:35.918Z,99769.00
2019-02-18T06:33:40.852Z,99763.00
2019-02-18T06:35:47.811Z,99768.00
2019-02-18T06:37:53.116Z,99768.00
2019-02-18T06:39:58.283Z,99765.00
2019-02-18T06:42:03.457Z,99762.00
2019-02-18T06:44:09.036Z,99742.00
2019-02-18T06:46:25.302Z,99767.00
2019-02-18T06:48:32.958Z,99764.00
2019-02-18T06:50:38.389Z,99758.00
2019-02-18T06:52:43.566Z,99764.00
2019-02-18T06:54:49.197Z,99770.00
2019-02-18T06:57:16.573Z,99760.00
2019-02-18T06:59:29.076Z,99768.00
2019-02-18T07:01:49.892Z,99774.00
2019-02-18T07:04:16.825Z,99771.00
2019-02-18T07:06:31.212Z,99777.00
2019-02-18T07:09:04.603Z,99770.00
2019-02-18T07:11:19.454Z,99771.00
2019-02-18T07:13:24.518Z,99775.00
2019-02-18T07:15:29.681Z,99774.00
2019-02-18T07:17:34.842Z,99772.00
2019-02-18T07:19:40.003Z,99771.00
2019-02-18T07:21:44.958Z,99768.00
2019-02-18T07:23:50.091Z,99768.00
2019-02-18T07:25:55.351Z,99765.00
2019-02-18T07:28:00.205Z,99764.00
2019-02-18T07:30:07.101Z,99765.00
2019-02-18T07:32:13.206Z,99766.00
2019-02-18T07:34:18.727Z,99765.00
2019-02-18T07:36:23.594Z,99764.00
2019-02-18T07:38:28.558Z,99755.00
2019-02-18T07:40:33.975Z,99752.00
2019-02-18T07:42:39.153Z,99760.00
2019-02-18T07:44:44.398Z,99750.00
2019-02-18T07:46:49.255Z,99757.00
2019-02-18T07:48:54.851Z,99755.00
2019-02-18T07:51:00.053Z,99762.00
2019-02-18T07:53:05.067Z,99759.00
2019-02-18T07:55:10.262Z,99753.00
2019-02-18T07:57:15.405Z,99751.00
2019-02-18T07:59:20.299Z,99748.00
2019-02-18T08:01:25.560Z,99747.00
2019-02-18T08:03:30.659Z,99737.00
2019-02-18T08:05:35.757Z,99738.00
2019-02-18T08:07:40.967Z,99746.00
2019-02-18T08:09:46.256Z,99745.00
2019-02-18T08:11:51.620Z,99737.00
2019-02-18T08:13:57.144Z,99741.00
2019-02-18T08:16:02.690Z,99748.00
2019-02-18T08:18:07.869Z,99732.00
2019-02-18T08:20:13.114Z,99739.00
2019-02-18T08:22:18.360Z,99730.00
2019-02-18T08:24:24.036Z,99732.00
2019-02-18T08:26:29.189Z,99724.00
2019-02-18T08:28:35.227Z,99726.00
2019-02-18T08:30:40.654Z,99721.00
2019-02-18T08:32:45.993Z,99724.00
2019-02-18T08:34:51.266Z,99727.00
2019-02-18T08:36:56.381Z,99717.00
2019-02-18T08:39:01.551Z,99710.00
2019-02-18T08:41:06.487Z,99710.00
2019-02-18T08:43:11.750Z,99721.00
2019-02-18T08:45:16.773Z,99712.00
2019-02-18T08:47:21.972Z,99712.00
2019-02-18T08:49:26.923Z,99720.00
2019-02-18T08:51:31.778Z,99716.00
2019-02-18T08:53:37.304Z,99711.00
2019-02-18T08:55:42.399Z,99713.00
2019-02-18T08:57:48.123Z,99712.00
2019-02-18T08:59:53.584Z,99714.00
2019-02-18T09:01:58.958Z,99703.00
2019-02-18T09:04:03.979Z,99700.00
2019-02-18T09:06:08.824Z,99697.00
2019-02-18T09:08:14.004Z,99695.00
2019-02-18T09:10:19.564Z,99686.00
2019-02-18T09:12:24.462Z,99696.00
2019-02-18T09:14:29.398Z,99684.00
2019-02-18T09:16:34.298Z,99681.00
2019-02-18T09:18:39.759Z,99684.00
2019-02-18T09:20:44.924Z,99681.00
2019-02-18T09:22:58.850Z,99683.00
2019-02-18T09:25:22.781Z,99674.00
2019-02-18T09:27:28.299Z,99681.00
2019-02-18T09:29:33.148Z,99659.00
2019-02-18T09:31:38.268Z,99675.00
2019-02-18T09:33:43.193Z,99669.00
2019-02-18T09:35:48.562Z,99662.00
2019-02-18T09:37:53.608Z,99662.00
2019-02-18T09:39:59.179Z,99651.00
2019-02-18T09:42:04.153Z,99655.00
2019-02-18T09:44:09.328Z,99650.00
2019-02-18T09:46:14.781Z,99650.00
2019-02-18T09:48:20.044Z,99647.00
2019-02-18T09:50:25.696Z,99647.00
2019-02-18T09:52:30.563Z,99655.00
2019-02-18T09:54:36.185Z,99652.00
2019-02-18T09:56:41.298Z,99651.00
2019-02-18T09:58:47.265Z,99647.00
2019-02-18T10:00:52.194Z,99646.00
2019-02-18T10:02:57.965Z,99641.00
2019-02-18T10:05:03.293Z,99640.00
2019-02-18T10:07:08.504Z,99643.00
2019-02-18T10:09:13.690Z,99637.00
2019-02-18T10:11:18.607Z,99646.00
2019-02-18T10:13:23.550Z,99637.00
2019-02-18T10:15:29.103Z,99632.00
2019-02-18T10:17:34.443Z,99627.00
2019-02-18T10:19:39.361Z,99628.00
2019-02-18T10:21:44.224Z,99620.00
2019-02-18T10:23:49.388Z,99627.00
2019-02-18T10:25:54.481Z,99615.00
2019-02-18T10:28:00.083Z,99627.00
2019-02-18T10:30:06.206Z,99611.00
2019-02-18T10:32:11.127Z,99615.00
2019-02-18T10:34:16.071Z,99612.00
2019-02-18T10:36:20.922Z,99613.00
2019-02-18T10:38:26.429Z,99620.00
2019-02-18T10:40:31.740Z,99616.00
2019-02-18T10:42:36.850Z,99608.00
2019-02-18T10:44:41.974Z,99613.00
2019-02-18T10:46:47.512Z,99604.00
2019-02-18T10:48:52.983Z,99603.00
2019-02-18T10:50:58.112Z,99601.00
2019-02-18T10:53:03.293Z,99596.00
2019-02-18T10:55:09.053Z,99596.00
2019-02-18T10:57:14.360Z,99593.00
2019-02-18T10:59:19.291Z,99588.00
2019-02-18T11:01:24.258Z,99586.00
2019-02-18T11:03:29.151Z,99590.00
2019-02-18T11:05:34.309Z,99578.00
2019-02-18T11:07:39.865Z,99578.00
2019-02-18T11:09:44.811Z,99581.00
2019-02-18T11:11:50.069Z,99571.00
2019-02-18T11:13:55.500Z,99570.00
2019-02-18T11:16:00.736Z,99567.00
2019-02-18T11:18:06.142Z,99572.00
2019-02-18T11:20:12.064Z,99574.00
2019-02-18T11:22:18.216Z,99560.00
2019-02-18T11:24:23.519Z,99562.00
2019-02-18T11:26:28.772Z,99557.00
2019-02-18T11:28:35.963Z,99555.00
2019-02-18T11:30:41.155Z,99552.00
2019-02-18T11:32:46.618Z,99555.00
2019-02-18T11:34:51.792Z,99548.00
2019-02-18T11:36:57.440Z,99541.00
2019-02-18T11:39:04.383Z,99542.00
2019-02-18T11:41:09.510Z,99537.00
2019-02-18T11:43:14.637Z,99537.00
2019-02-18T11:45:19.504Z,99537.00
2019-02-18T11:47:24.395Z,99539.00
2019-02-18T11:49:29.509Z,99532.00
2019-02-18T11:51:35.057Z,99536.00
2019-02-18T11:53:40.192Z,99524.00
2019-02-18T11:55:45.480Z,99522.00
2019-02-18T11:57:50.637Z,99532.00
2019-02-18T11:59:56.168Z,99530.00
2019-02-18T12:02:02.418Z,99522.00
2019-02-18T12:04:07.722Z,99531.00
2019-02-18T12:06:12.709Z,99516.00
2019-02-18T12:08:17.595Z,99516.00
2019-02-18T12:10:23.537Z,99508.00
2019-02-18T12:12:28.407Z,99514.00
2019-02-18T12:14:34.529Z,99510.00
2019-02-18T12:16:39.385Z,99508.00
2019-02-18T12:18:44.927Z,99508.00
2019-02-18T12:20:50.285Z,99507.00
2019-02-18T12:22:55.532Z,99498.00
2019-02-18T12:25:01.082Z,99505.00
2019-02-18T12:27:06.750Z,99502.00
2019-02-18T12:29:12.111Z,99495.00
2019-02-18T12:31:17.356Z,99498.00
2019-02-18T12:33:22.363Z,99500.00
2019-02-18T12:35:30.891Z,99493.00
2019-02-18T12:37:34.565Z,99487.00
2019-02-18T12:39:39.480Z,99485.00
2019-02-18T12:41:48.560Z,99481.00
2019-02-18T12:43:51.860Z,99473.00
2019-02-18T12:45:56.937Z,99481.00
2019-02-18T12:48:02.008Z,99481.00
2019-02-18T12:50:08.041Z,99468.00
2019-02-18T12:52:13.544Z,99468.00
2019-02-18T12:54:18.532Z,99471.00
2019-02-18T12:56:23.912Z,99460.00
2019-02-18T12:58:28.898Z,99464.00
2019-02-18T13:00:35.344Z,99462.00
2019-02-18T13:02:44.185Z,99453.00
2019-02-18T13:04:48.317Z,99461.00
2019-02-18T13:06:53.459Z,99456.00
2019-02-18T13:08:58.731Z,99445.00
2019-02-18T13:11:04.203Z,99447.00
2019-02-18T13:13:09.542Z,99444.00
2019-02-18T13:15:15.001Z,99440.00
2019-02-18T13:17:20.006Z,99439.00
2019-02-18T13:19:25.412Z,99440.00
2019-02-18T13:21:30.655Z,99431.00
2019-02-18T13:23:36.331Z,99424.00
2019-02-18T13:25:47.402Z,99424.00
2019-02-18T13:27:48.984Z,99415.00
2019-02-18T13:29:54.300Z,99417.00
2019-02-18T13:32:00.018Z,99406.00
2019-02-18T13:34:05.066Z,99413.00
2019-02-18T13:36:15.655Z,99407.00
2019-02-18T13:38:21.411Z,99401.00
2019-02-18T13:40:26.702Z,99396.00
2019-02-18T13:42:31.766Z,99391.00
2019-02-18T13:44:37.533Z,99385.00
2019-02-18T13:46:42.508Z,99397.00
2019-02-18T13:48:47.607Z,99394.00
2019-02-18T13:50:52.684Z,99377.00
2019-02-18T13:52:58.308Z,99381.00
2019-02-18T13:55:03.862Z,99377.00
2019-02-18T13:57:10.267Z,99366.00
2019-02-18T13:59:16.114Z,99367.00
2019-02-18T14:01:21.576Z,99367.00
2019-02-18T14:03:26.909Z,99367.00
2019-02-18T14:05:31.946Z,99369.00
2019-02-18T14:07:37.741Z,99365.00
2019-02-18T14:09:42.804Z,99360.00
2019-02-18T14:11:48.372Z,99360.00
2019-02-18T14:13:53.524Z,99354.00
2019-02-18T14:15:59.193Z,99349.00
2019-02-18T14:18:04.408Z,99349.00
2019-02-18T14:20:13.988Z,99333.00
2019-02-18T14:22:19.191Z,99332.00
2019-02-18T14:24:24.317Z,99323.00
2019-02-18T14:26:29.367Z,99333.00
2019-02-18T14:28:34.600Z,99327.00
2019-02-18T14:30:40.203Z,99337.00
2019-02-18T14:32:45.935Z,99326.00
2019-02-18T14:34:51.068Z,99327.00
2019-02-18T14:36:56.660Z,99325.00
2019-02-18T14:39:01.718Z,99324.00
2019-02-18T14:41:07.676Z,99313.00
2019-02-18T14:43:13.751Z,99308.00
2019-02-18T14:45:18.830Z,99310.00
2019-02-18T14:47:24.985Z,99309.00
2019-02-18T14:49:30.429Z,99307.00
2019-02-18T14:51:55.054Z,99315.00
2019-02-18T14:54:00.139Z,99320.00
2019-02-18T14:56:07.542Z,99326.00
2019-02-18T14:58:12.881Z,99326.00
2019-02-18T15:00:23.649Z,99324.00
2019-02-18T15:02:28.806Z,99322.00
2019-02-18T15:04:34.455Z,99317.00
2019-02-18T15:06:39.931Z,99324.00
2019-02-18T15:08:45.586Z,99326.00
2019-02-18T15:10:50.860Z,99329.00
2019-02-18T15:12:55.970Z,99328.00
2019-02-18T15:15:00.970Z,99329.00
2019-02-18T15:17:06.500Z,99330.00
2019-02-18T15:19:11.659Z,99331.00
2019-02-18T15:21:16.655Z,99331.00
2019-02-18T15:23:22.153Z,99326.00
2019-02-18T15:25:27.630Z,99330.00
2019-02-18T15:27:32.821Z,99322.00
2019-02-18T15:29:38.157Z,99332.00
2019-02-18T15:31:43.602Z,99331.00
2019-02-18T15:33:48.623Z,99326.00
2019-02-18T15:35:53.860Z,99327.00
2019-02-18T15:37:58.918Z,99325.00
2019-02-18T15:40:05.132Z,99324.00
2019-02-18T15:42:10.168Z,99326.00
2019-02-18T15:44:15.411Z,99329.00
2019-02-18T15:46:20.627Z,99333.00
2019-02-18T15:48:25.691Z,99326.00
2019-02-18T15:50:31.091Z,99326.00
2019-02-18T15:52:36.360Z,99334.00
2019-02-18T15:54:41.363Z,99321.00
2019-02-18T15:56:47.525Z,99327.00
2019-02-18T15:58:53.044Z,99326.00
2019-02-18T16:00:59.305Z,99307.00
2019-02-18T16:03:05.694Z,99338.00
2019-02-18T16:05:11.163Z,99332.00
2019-02-18T16:07:16.214Z,99340.00
2019-02-18T16:09:21.591Z,99329.00
2019-02-18T16:11:26.978Z,99327.00
2019-02-18T16:13:32.318Z,99322.00
2019-02-18T16:15:37.371Z,99330.00
2019-02-18T16:17:42.961Z,99328.00
2019-02-18T16:19:47.883Z,99333.00
2019-02-18T16:21:53.235Z,99329.00
2019-02-18T16:23:59.108Z,99330.00
2019-02-18T16:26:06.288Z,99329.00
2019-02-18T16:28:11.202Z,99334.00
2019-02-18T16:30:16.431Z,99330.00
2019-02-18T16:32:21.852Z,99341.00
2019-02-18T16:34:26.947Z,99336.00
2019-02-18T16:36:31.878Z,99334.00
2019-02-18T16:38:37.412Z,99335.00
2019-02-18T16:40:42.741Z,99329.00
2019-02-18T16:42:47.975Z,99332.00
2019-02-18T16:44:53.204Z,99342.00
2019-02-18T16:46:58.244Z,99328.00
2019-02-18T16:49:03.615Z,99332.00
2019-02-18T16:51:08.699Z,99345.00
2019-02-18T16:53:13.693Z,99343.00
2019-02-18T16:55:19.197Z,99350.00
2019-02-18T16:57:24.522Z,99345.00
2019-02-18T16:59:29.790Z,99352.00
2019-02-18T17:01:35.211Z,99348.00
2019-02-18T17:03:40.392Z,99350.00
2019-02-18T17:05:45.317Z,99360.00
2019-02-18T17:07:50.999Z,99353.00
2019-02-18T17:09:55.922Z,99354.00
2019-02-18T17:12:01.200Z,99348.00
2019-02-18T17:14:06.338Z,99354.00
2019-02-18T17:16:11.330Z,99348.00
2019-02-18T17:18:16.356Z,99344.00
2019-02-18T17:20:21.715Z,99358.00
2019-02-18T17:22:26.801Z,99353.00
2019-02-18T17:24:32.113Z,99356.00
2019-02-18T17:26:37.387Z,99348.00
2019-02-18T17:28:42.293Z,99350.00
2019-02-18T17:30:47.701Z,99339.00
2019-02-18T17:32:53.047Z,99344.00
2019-02-18T17:34:58.118Z,99362.00
2019-02-18T17:37:03.382Z,99353.00
2019-02-18T17:39:09.717Z,99347.00
2019-02-18T17:41:14.978Z,99346.00
2019-02-18T17:43:20.119Z,99349.00
2019-02-18T17:45:25.217Z,99353.00
2019-02-18T17:47:30.214Z,99360.00
2019-02-18T17:49:36.212Z,99355.00
2019-02-18T17:51:41.753Z,99357.00
2019-02-18T17:53:47.345Z,99362.00
2019-02-18T17:55:52.345Z,99363.00
2019-02-18T17:57:57.747Z,99365.00
2019-02-18T18:00:02.958Z,99362.00
2019-02-18T18:02:08.765Z,99360.00
2019-02-18T18:04:14.431Z,99353.00
2019-02-18T18:06:19.482Z,99362.00
2019-02-18T18:08:24.849Z,99362.00
2019-02-18T18:10:29.858Z,99365.00
2019-02-18T18:12:35.151Z,99358.00
2019-02-18T18:14:40.535Z,99363.00
2019-02-18T18:16:46.408Z,99371.00
2019-02-18T18:18:51.852Z,99360.00
2019-02-18T18:20:57.157Z,99361.00
2019-02-18T18:23:02.801Z,99354.00
2019-02-18T18:25:08.402Z,99354.00
2019-02-18T18:27:13.424Z,99356.00
2019-02-18T18:29:18.666Z,99355.00
2019-02-18T18:31:23.802Z,99351.00
2019-02-18T18:33:29.033Z,99353.00
2019-02-18T18:35:34.015Z,99358.00
2019-02-18T18:37:39.131Z,99357.00
2019-02-18T18:39:44.628Z,99351.00
2019-02-18T18:41:49.680Z,99354.00
2019-02-18T18:43:55.346Z,99354.00
2019-02-18T18:46:00.317Z,99356.00
2019-02-18T18:48:05.759Z,99360.00
2019-02-18T18:50:15.140Z,99360.00
2019-02-18T18:52:20.552Z,99361.00
2019-02-18T18:54:25.563Z,99362.00
2019-02-18T18:56:30.974Z,99366.00
2019-02-18T18:58:35.970Z,99358.00
2019-02-18T19:00:41.149Z,99364.00
2019-02-18T19:02:46.215Z,99374.00
2019-02-18T19:04:51.767Z,99371.00
2019-02-18T19:06:56.767Z,99367.00
2019-02-18T19:09:02.165Z,99362.00
2019-02-18T19:11:07.134Z,99369.00
2019-02-18T19:13:12.200Z,99360.00
2019-02-18T19:15:18.630Z,99376.00
2019-02-18T19:17:23.633Z,99372.00
2019-02-18T19:19:28.592Z,99369.00
2019-02-18T19:21:33.983Z,99375.00
2019-02-18T19:23:39.174Z,99376.00
2019-02-18T19:25:44.147Z,99381.00
2019-02-18T19:27:49.505Z,99372.00
2019-02-18T19:29:55.340Z,99374.00
2019-02-18T19:32:01.012Z,99378.00
2019-02-18T19:34:06.242Z,99379.00
2019-02-18T19:36:11.279Z,99375.00
2019-02-18T19:38:16.282Z,99374.00
2019-02-18T19:40:21.603Z,99390.00
2019-02-18T19:42:26.668Z,99381.00
2019-02-18T19:44:32.054Z,99377.00
2019-02-18T19:46:37.523Z,99382.00
2019-02-18T19:48:42.842Z,99377.00
2019-02-18T19:50:47.870Z,99379.00
2019-02-18T19:52:53.262Z,99382.00
2019-02-18T19:54:58.516Z,99375.00
2019-02-18T19:57:03.618Z,99389.00
2019-02-18T19:59:08.682Z,99389.00
2019-02-18T20:01:13.672Z,99389.00
2019-02-18T20:03:19.358Z,99377.00
2019-02-18T20:05:24.794Z,99382.00
2019-02-18T20:07:30.474Z,99373.00
2019-02-18T20:09:35.651Z,99380.00
2019-02-18T20:11:40.960Z,99377.00
2019-02-18T20:13:45.937Z,99378.00
2019-02-18T20:15:51.283Z,99384.00
2019-02-18T20:17:56.845Z,99373.00
2019-02-18T20:20:01.966Z,99378.00
2019-02-18T20:22:06.965Z,99383.00
2019-02-18T20:24:12.298Z,99379.00
2019-02-18T20:26:17.996Z,99382.00
2019-02-18T20:28:23.744Z,99391.00
2019-02-18T20:30:29.080Z,99383.00
2019-02-18T20:32:34.346Z,99376.00
2019-02-18T20:34:39.267Z,99388.00
2019-02-18T20:36:44.170Z,99388.00
2019-02-18T20:38:49.795Z,99389.00
2019-02-18T20:40:54.960Z,99390.00
2019-02-18T20:43:00.319Z,99390.00
2019-02-18T20:45:05.818Z,99387.00
2019-02-18T20:47:11.228Z,99379.00
2019-02-18T20:49:16.576Z,99382.00
2019-02-18T20:51:22.156Z,99382.00
2019-02-18T20:53:27.087Z,99382.00
2019-02-18T20:55:32.175Z,99388.00
2019-02-18T20:57:37.157Z,99389.00
2019-02-18T20:59:42.394Z,99381.00
2019-02-18T21:01:48.138Z,99383.00
2019-02-18T21:03:53.476Z,99376.00
2019-02-18T21:05:58.733Z,99378.00
2019-02-18T21:08:04.227Z,99382.00
2019-02-18T21:10:11.195Z,99380.00
2019-02-18T21:12:19.882Z,99385.00
2019-02-18T21:14:23.089Z,99389.00
2019-02-18T21:16:28.710Z,99376.00
2019-02-18T21:18:34.675Z,99379.00
2019-02-18T21:20:39.934Z,99385.00
2019-02-18T21:22:44.999Z,99381.00
2019-02-18T21:24:50.004Z,99382.00
2019-02-18T21:26:54.923Z,99389.00
2019-02-18T21:28:59.986Z,99386.00
2019-02-18T21:31:05.473Z,99381.00
2019-02-18T21:33:10.855Z,99392.00
2019-02-18T21:35:15.912Z,99390.00
2019-02-18T21:37:21.571Z,99395.00
2019-02-18T21:39:26.472Z,99382.00
2019-02-18T21:41:31.824Z,99382.00
2019-02-18T21:43:36.814Z,99395.00
2019-02-18T21:45:41.854Z,99386.00
2019-02-18T21:47:47.031Z,99389.00
2019-02-18T21:49:52.377Z,99382.00
2019-02-18T21:51:58.855Z,99386.00
2019-02-18T21:54:03.835Z,99391.00
2019-02-18T21:56:08.872Z,99387.00
2019-02-18T21:58:14.755Z,99377.00
2019-02-18T22:00:21.344Z,99383.00
2019-02-18T22:02:26.392Z,99392.00
2019-02-18T22:04:31.275Z,99389.00
2019-02-18T22:06:36.633Z,99385.00
2019-02-18T22:08:41.942Z,99393.00
2019-02-18T22:10:48.056Z,99391.00
2019-02-18T22:12:53.528Z,99401.00
2019-02-18T22:14:58.711Z,99395.00
2019-02-18T22:17:04.089Z,99396.00
2019-02-18T22:19:09.054Z,99394.00
2019-02-18T22:21:14.226Z,99398.00
2019-02-18T22:23:19.695Z,99399.00
2019-02-18T22:25:24.887Z,99395.00
2019-02-18T22:27:30.012Z,99402.00
2019-02-18T22:29:34.919Z,99399.00
2019-02-18T22:31:40.321Z,99402.00
2019-02-18T22:33:46.081Z,99398.00
2019-02-18T22:35:51.378Z,99402.00
2019-02-18T22:37:56.486Z,99400.00
2019-02-18T22:40:01.380Z,99388.00
2019-02-18T22:42:06.839Z,99399.00
2019-02-18T22:44:11.980Z,99387.00
2019-02-18T22:46:17.690Z,99395.00
2019-02-18T22:48:23.152Z,99395.00
2019-02-18T22:50:28.290Z,99392.00
2019-02-18T22:52:33.744Z,99390.00
2019-02-18T22:54:39.033Z,99392.00
2019-02-18T22:56:44.322Z,99394.00
2019-02-18T22:58:49.351Z,99396.00
2019-02-18T23:00:59.991Z,99389.00
2019-02-18T23:03:05.116Z,99387.00
2019-02-18T23:05:10.191Z,99380.00
2019-02-18T23:07:16.608Z,99390.00
2019-02-18T23:09:21.583Z,99385.00
2019-02-18T23:11:26.641Z,99375.00
2019-02-18T23:13:31.608Z,99385.00
2019-02-18T23:15:36.607Z,99388.00
2019-02-18T23:17:41.568Z,99392.00
2019-02-18T23:19:46.980Z,99396.00
2019-02-18T23:21:52.007Z,99382.00
2019-02-18T23:23:57.394Z,99384.00
2019-02-18T23:26:03.165Z,99394.00
2019-02-18T23:28:08.524Z,99387.00
2019-02-18T23:30:14.171Z,99393.00
2019-02-18T23:32:19.149Z,99386.00
2019-02-18T23:34:24.409Z,99383.00
2019-02-18T23:36:29.538Z,99385.00
2019-02-18T23:38:34.894Z,99392.00
2019-02-18T23:40:40.355Z,99396.00
2019-02-18T23:42:45.398Z,99393.00
2019-02-18T23:44:58.843Z,99397.00
2019-02-18T23:46:57.851Z,99391.00
2019-02-18T23:49:03.314Z,99384.00
2019-02-18T23:51:08.299Z,99394.00
2019-02-18T23:53:13.356Z,99383.00
2019-02-18T23:55:18.264Z,99396.00
2019-02-18T23:57:23.322Z,99393.00
2019-02-18T23:59:28.216Z,99388.00
